Time;durP1;ratioP1;P1;durP2;ratioP2;P2;SDS_P1;SDS_P2;PMS_P1;PMS_P2;Temp;Humidity;BMP_temperature;BMP_pressure;BME280_temperature;BME280_humidity;BME280_pressure;Samples;Min_cycle;Max_cycle;Signal;HPM_P1;HPM_P2
2022/10/17 00:01:35;;;;;;;6.63;3.10;;;;;;;18.25;61.97;99267.09;6949462;28;20306;-77
2022/10/17 00:04:58;;;;;;;6.03;3.40;;;;;;;17.88;63.20;99277.53;6949566;28;20211;-77
2022/10/17 00:08:20;;;;;;;6.83;2.73;;;;;;;17.84;64.04;99283.69;6949717;28;20623;-77
2022/10/17 00:11:41;;;;;;;6.77;3.00;;;;;;;18.26;62.83;99285.13;6950187;28;20319;-77
2022/10/17 00:15:04;;;;;;;8.23;3.17;;;;;;;18.22;62.40;99284.78;6949770;28;20279;-77
2022/10/17 00:18:25;;;;;;;3.87;2.37;;;;;;;18.24;61.58;99260.84;6949220;28;20945;-77
2022/10/17 00:21:50;;;;;;;14.37;3.40;;;;;;;18.25;61.97;99273.41;6949911;28;20260;-76
2022/10/17 00:25:12;;;;;;;11.60;3.10;;;;;;;18.03;62.68;99268.81;6949205;28;20217;-76
2022/10/17 00:28:33;;;;;;;8.27;3.20;;;;;;;16.83;67.06;99285.91;6949433;28;20206;-76
2022/10/17 00:31:55;;;;;;;11.50;2.97;;;;;;;17.11;65.83;99266.97;6948753;28;20298;-77
2022/10/17 00:35:17;;;;;;;7.17;2.83;;;;;;;17.34;66.79;99302.44;6949199;28;20197;-77
2022/10/17 00:38:40;;;;;;;8.87;3.43;;;;;;;17.79;64.38;99281.69;6948633;28;20292;-77
2022/10/17 00:42:01;;;;;;;7.17;3.20;;;;;;;18.04;63.14;99292.34;6949332;28;20232;-77
2022/10/17 00:45:24;;;;;;;8.10;3.27;;;;;;;17.62;63.87;99293.56;6949256;28;20213;-77
2022/10/17 00:48:46;;;;;;;6.43;2.90;;;;;;;17.94;63.76;99300.31;6948236;28;20296;-77
2022/10/17 00:52:10;;;;;;;7.13;3.10;;;;;;;17.94;63.25;99294.84;6948974;28;20294;-77
2022/10/17 00:55:34;;;;;;;4.83;2.77;;;;;;;18.07;62.92;99291.84;6949192;28;20238;-77
2022/10/17 00:58:56;;;;;;;8.10;2.93;;;;;;;18.28;62.34;99293.94;6948034;28;20270;-78
2022/10/17 01:02:20;;;;;;;6.27;3.10;;;;;;;18.11;62.31;99293.84;6948733;28;20305;-78
2022/10/17 01:05:42;;;;;;;8.70;2.70;;;;;;;18.03;62.31;99293.38;6948924;28;20208;-77
2022/10/17 01:09:03;;;;;;;5.73;3.13;;;;;;;17.76;62.41;99262.25;6947907;28;20236;-77
2022/10/17 01:12:30;;;;;;;3.70;3.00;;;;;;;18.06;62.03;99296.50;6949265;28;20670;-77
2022/10/17 01:16:00;;;;;;;8.30;3.03;;;;;;;18.00;62.11;99289.25;6948576;28;20315;-77
2022/10/17 01:19:38;;;;;;;10.53;3.37;;;;;;;17.66;62.34;99289.31;6947448;28;20232;-77
2022/10/17 01:23:11;;;;;;;10.87;3.20;;;;;;;17.80;62.68;99299.72;6948952;28;20330;-77
2022/10/17 01:26:47;;;;;;;7.23;2.87;;;;;;;17.81;62.28;99292.38;6920481;28;20202;-77
2022/10/17 01:30:32;;;;;;;6.33;3.23;;;;;;;17.80;62.13;99297.00;6918957;28;20225;-77
2022/10/17 01:34:00;;;;;;;5.57;3.07;;;;;;;17.51;62.93;99288.97;6920918;28;20198;-78
2022/10/17 01:37:28;;;;;;;8.33;3.03;;;;;;;17.47;62.97;99304.97;6920429;28;20274;-78
2022/10/17 01:40:52;;;;;;;8.40;3.13;;;;;;;17.20;64.11;99289.25;6920150;28;20656;-77
2022/10/17 01:44:18;;;;;;;9.30;3.97;;;;;;;17.53;63.34;99284.94;6920715;28;20238;-77
2022/10/17 01:47:41;;;;;;;6.10;3.37;;;;;;;17.70;62.97;99288.56;6919822;28;20188;-77
2022/10/17 01:51:08;;;;;;;11.93;3.30;;;;;;;17.58;62.68;99285.03;6920301;28;20318;-77
2022/10/17 01:54:32;;;;;;;6.17;3.20;;;;;;;17.57;62.46;99298.94;6920178;28;20197;-77
2022/10/17 01:57:56;;;;;;;8.53;3.00;;;;;;;17.22;63.35;99298.06;6919822;28;20234;-77
2022/10/17 02:01:18;;;;;;;11.13;3.73;;;;;;;17.34;63.14;99291.53;6919484;28;20374;-77
2022/10/17 02:04:40;;;;;;;8.37;3.20;;;;;;;17.32;63.42;99290.09;6919794;28;20231;-77
2022/10/17 02:08:03;;;;;;;6.57;3.20;;;;;;;17.35;62.98;99287.72;6919260;28;20712;-77
2022/10/17 02:11:26;;;;;;;4.40;3.40;;;;;;;17.27;63.52;99282.63;6920056;28;20769;-77
2022/10/17 02:14:58;;;;;;;6.93;3.07;;;;;;;17.16;63.44;99285.38;6919767;28;20231;-77
2022/10/17 02:18:30;;;;;;;8.97;3.50;;;;;;;16.97;63.48;99254.66;6918960;28;20221;-76
2022/10/17 02:21:58;;;;;;;5.10;3.00;;;;;;;17.42;62.86;99279.47;6922876;28;20652;-77
2022/10/17 02:25:27;;;;;;;6.87;3.20;;;;;;;17.41;62.39;99278.66;6919503;28;20602;-78
2022/10/17 02:28:58;;;;;;;5.17;3.10;;;;;;;17.11;63.15;99282.53;6918175;28;20324;-77
2022/10/17 02:32:25;;;;;;;4.50;3.23;;;;;;;17.12;63.43;99262.38;6917708;28;20197;-77
2022/10/17 02:35:49;;;;;;;8.00;2.87;;;;;;;17.18;63.10;99281.34;6918350;28;20203;-77
2022/10/17 02:39:11;;;;;;;7.17;3.23;;;;;;;17.11;63.26;99282.53;6918521;28;20237;-77
2022/10/17 02:42:35;;;;;;;8.17;3.30;;;;;;;17.25;63.34;99287.50;6918678;28;20218;-77
2022/10/17 02:45:56;;;;;;;7.63;3.00;;;;;;;17.14;62.98;99261.06;6918506;28;20279;-78
2022/10/17 02:49:21;;;;;;;7.37;3.00;;;;;;;17.06;63.10;99293.28;6917819;28;20316;-77
2022/10/17 02:52:46;;;;;;;8.73;3.50;;;;;;;16.82;63.59;99286.13;6918466;28;20212;-77
2022/10/17 02:56:12;;;;;;;7.87;3.30;;;;;;;16.44;64.99;99296.53;6918241;28;20321;-77
2022/10/17 02:59:36;;;;;;;13.63;3.60;;;;;;;16.43;66.18;99297.59;6917541;28;20363;-77
2022/10/17 03:02:57;;;;;;;6.93;3.13;;;;;;;16.76;65.18;99296.03;6918093;28;20217;-78
2022/10/17 03:06:19;;;;;;;10.10;3.80;;;;;;;16.22;67.01;99289.91;6918324;28;20205;-77
2022/10/17 03:09:40;;;;;;;10.70;3.43;;;;;;;16.95;64.68;99292.22;6917513;28;20294;-77
2022/10/17 03:13:02;;;;;;;7.07;4.00;;;;;;;16.90;64.71;99294.78;6918582;28;20209;-78
2022/10/17 03:16:25;;;;;;;6.80;3.50;;;;;;;17.15;63.78;99295.44;6918113;28;20232;-78
2022/10/17 03:19:46;;;;;;;5.60;3.30;;;;;;;17.05;63.40;99303.34;6917323;28;20232;-78
2022/10/17 03:23:08;;;;;;;6.17;2.77;;;;;;;16.86;63.98;99300.94;6918652;28;20359;-76
2022/10/17 03:26:29;;;;;;;7.07;3.60;;;;;;;16.88;63.67;99287.94;6926419;28;20276;-76
2022/10/17 03:29:52;;;;;;;6.80;3.40;;;;;;;16.74;63.97;99319.16;6919720;28;20228;-77
2022/10/17 03:33:14;;;;;;;9.67;3.17;;;;;;;16.88;63.55;99315.97;6922314;28;20254;-77
2022/10/17 03:36:36;;;;;;;11.53;3.03;;;;;;;16.40;64.81;99317.94;6923178;28;20593;-77
2022/10/17 03:39:57;;;;;;;10.47;3.77;;;;;;;16.67;64.57;99299.34;6923086;28;20229;-76
2022/10/17 03:43:19;;;;;;;10.47;3.43;;;;;;;16.73;64.16;99318.31;6923516;28;20209;-77
2022/10/17 03:46:40;;;;;;;10.03;3.10;;;;;;;16.66;63.73;99287.63;6923130;28;20299;-76
2022/10/17 03:50:04;;;;;;;5.37;3.27;;;;;;;16.87;63.60;99332.56;6921942;28;20617;-76
2022/10/17 03:53:25;;;;;;;7.70;3.20;;;;;;;16.78;63.40;99328.50;6921893;28;20612;-77
2022/10/17 03:56:47;;;;;;;6.93;3.20;;;;;;;16.88;63.26;99324.16;6922280;28;20233;-76
2022/10/17 04:00:10;;;;;;;6.07;3.27;;;;;;;17.02;62.55;99325.63;6922095;28;20269;-76
2022/10/17 04:03:32;;;;;;;8.97;2.97;;;;;;;16.87;62.48;99335.28;6921493;28;20307;-77
2022/10/17 04:06:54;;;;;;;7.63;3.53;;;;;;;16.82;62.76;99340.59;6921867;28;20294;-77
2022/10/17 04:10:16;;;;;;;6.83;3.40;;;;;;;16.58;62.87;99336.13;6927047;28;20223;-77
2022/10/17 04:13:37;;;;;;;6.40;3.20;;;;;;;16.52;63.32;99337.88;6948866;28;20297;-77
2022/10/17 04:16:59;;;;;;;10.57;3.50;;;;;;;16.25;63.88;99317.50;6947946;28;20254;-77
2022/10/17 04:20:21;;;;;;;8.20;3.60;;;;;;;16.28;64.75;99343.41;6946991;28;20304;-78
2022/10/17 04:23:43;;;;;;;5.10;3.27;;;;;;;16.56;64.47;99344.53;6943301;28;20223;-77
2022/10/17 04:27:05;;;;;;;4.17;3.30;;;;;;;16.64;63.60;99318.88;6947515;28;20668;-77
2022/10/17 04:30:26;;;;;;;4.93;3.60;;;;;;;16.65;63.77;99343.16;6945940;28;20761;-77
2022/10/17 04:33:49;;;;;;;5.93;3.40;;;;;;;16.79;63.25;99347.34;6947169;28;20188;-78
2022/10/17 04:37:10;;;;;;;9.30;3.23;;;;;;;16.40;63.79;99357.94;6946961;28;20784;-78
2022/10/17 04:40:33;;;;;;;8.30;3.10;;;;;;;16.68;63.02;99345.41;6947139;28;20285;-77
2022/10/17 04:43:54;;;;;;;4.60;3.20;;;;;;;16.44;63.64;99368.13;6956134;28;20661;-77
2022/10/17 04:47:16;;;;;;;7.50;3.10;;;;;;;16.59;63.83;99354.97;6948505;28;20210;-78
2022/10/17 04:50:37;;;;;;;10.33;3.47;;;;;;;16.76;62.98;99366.03;6948287;28;20249;-79
2022/10/17 04:53:59;;;;;;;7.97;3.50;;;;;;;16.65;63.09;99366.81;6947705;28;20227;-78
2022/10/17 04:57:22;;;;;;;6.40;2.97;;;;;;;16.57;63.14;99343.47;6948343;28;20716;-77
2022/10/17 05:00:44;;;;;;;7.80;3.40;;;;;;;16.10;64.16;99317.03;6951040;28;20606;-78
2022/10/17 05:04:05;;;;;;;8.80;3.43;;;;;;;16.37;64.65;99371.97;6948394;28;20286;-78
2022/10/17 05:07:27;;;;;;;6.30;4.03;;;;;;;15.97;65.75;99368.88;6948393;28;20296;-78
2022/10/17 05:10:48;;;;;;;8.17;4.10;;;;;;;16.29;66.53;99370.38;6947811;28;20825;-78
2022/10/17 05:14:11;;;;;;;8.10;3.67;;;;;;;16.55;64.82;99329.25;6947598;28;20226;-79
2022/10/17 05:17:33;;;;;;;6.63;3.50;;;;;;;16.33;65.20;99314.44;6946729;28;20325;-79
2022/10/17 05:20:54;;;;;;;4.87;3.73;;;;;;;16.81;64.40;99350.66;6947296;28;20389;-78
2022/10/17 05:24:16;;;;;;;8.50;3.57;;;;;;;17.28;63.93;99365.25;6947480;28;20199;-78
2022/10/17 05:27:38;;;;;;;14.20;4.20;;;;;;;17.19;63.79;99333.94;6948607;28;20231;-79
2022/10/17 05:31:03;;;;;;;12.17;6.33;;;;;;;17.30;63.29;99354.94;6947665;28;20239;-78
2022/10/17 05:34:25;;;;;;;9.13;2.87;;;;;;;17.35;63.15;99330.53;6948809;28;20247;-79
2022/10/17 05:37:46;;;;;;;7.67;3.70;;;;;;;17.43;63.21;99354.75;6947857;28;20228;-77
2022/10/17 05:41:09;;;;;;;6.87;3.40;;;;;;;17.67;62.75;99375.50;6949518;28;20289;-78
2022/10/17 05:44:31;;;;;;;4.27;3.10;;;;;;;17.64;63.18;99370.53;6948788;28;20342;-78
2022/10/17 05:47:54;;;;;;;4.37;2.60;;;;;;;17.50;62.40;99358.19;6947156;28;20253;-78
2022/10/17 05:51:15;;;;;;;5.10;3.53;;;;;;;17.79;62.16;99376.34;6948130;28;20228;-78
2022/10/17 05:54:37;;;;;;;8.00;3.40;;;;;;;17.68;62.07;99388.91;6947797;28;20296;-78
2022/10/17 05:57:59;;;;;;;9.67;3.43;;;;;;;17.73;61.87;99364.47;6947826;28;20374;-79
2022/10/17 06:01:21;;;;;;;13.03;3.90;;;;;;;17.83;61.98;99385.72;6948706;28;20270;-79
2022/10/17 06:04:47;;;;;;;6.77;3.67;;;;;;;17.62;62.38;99392.59;6948409;28;20341;-78
2022/10/17 06:08:08;;;;;;;10.90;3.43;;;;;;;17.70;62.14;99386.75;6947574;28;20232;-79
2022/10/17 06:11:30;;;;;;;8.70;3.73;;;;;;;17.76;61.98;99385.81;6947893;28;20747;-80
2022/10/17 06:14:52;;;;;;;8.23;4.27;;;;;;;17.65;61.65;99402.19;6949090;28;20401;-79
2022/10/17 06:18:13;;;;;;;7.23;3.60;;;;;;;17.33;62.99;99401.63;6947407;28;20370;-79
2022/10/17 06:21:37;;;;;;;5.60;3.70;;;;;;;17.67;62.64;99402.78;6948146;28;20232;-79
2022/10/17 06:24:59;;;;;;;6.60;3.10;;;;;;;17.83;61.99;99394.75;6946532;28;20209;-79
2022/10/17 06:28:20;;;;;;;7.57;3.33;;;;;;;18.09;61.19;99396.97;6947395;28;20291;-80
2022/10/17 06:31:42;;;;;;;3.33;3.03;;;;;;;17.83;61.47;99375.66;6946359;28;20323;-79
2022/10/17 06:35:04;;;;;;;7.40;3.40;;;;;;;18.02;61.72;99395.44;6947156;28;20190;-79
2022/10/17 06:38:26;;;;;;;7.83;3.10;;;;;;;18.15;61.27;99404.19;6946639;28;20315;-79
2022/10/17 06:41:48;;;;;;;9.90;3.33;;;;;;;18.23;61.54;99413.94;6946695;28;20251;-79
2022/10/17 06:45:10;;;;;;;7.93;3.37;;;;;;;18.47;61.38;99419.16;6947201;28;20299;-80
2022/10/17 06:48:32;;;;;;;3.57;3.17;;;;;;;18.94;59.44;99393.34;6926229;28;20692;-79
2022/10/17 06:51:54;;;;;;;6.77;3.30;;;;;;;19.16;59.44;99402.50;6943690;28;20284;-80
2022/10/17 06:55:17;;;;;;;6.43;2.90;;;;;;;19.84;57.96;99407.78;6937205;28;20631;-80
2022/10/17 06:58:40;;;;;;;5.67;2.80;;;;;;;20.10;56.20;99393.47;6946140;28;20345;-80
2022/10/17 07:02:02;;;;;;;3.30;2.90;;;;;;;20.75;54.57;99429.94;6930083;28;20321;-80
2022/10/17 07:05:24;;;;;;;5.10;3.30;;;;;;;20.64;55.16;99420.75;6938441;28;20203;-80
2022/10/17 07:08:45;;;;;;;5.40;2.40;;;;;;;21.13;54.55;99428.78;6944942;28;20614;-80
2022/10/17 07:12:10;;;;;;;3.47;2.47;;;;;;;21.69;53.41;99436.50;6952196;28;20254;-80
2022/10/17 07:15:32;;;;;;;5.67;2.37;;;;;;;21.35;53.58;99425.97;6952166;28;20186;-79
2022/10/17 07:18:54;;;;;;;9.50;2.83;;;;;;;21.39;53.96;99436.19;6951342;28;20230;-81
2022/10/17 07:22:16;;;;;;;4.70;2.83;;;;;;;21.77;52.85;99441.50;6951316;28;20203;-80
2022/10/17 07:25:37;;;;;;;9.57;3.53;;;;;;;19.89;57.67;99444.28;6951414;28;20681;-80
2022/10/17 07:29:00;;;;;;;6.67;3.20;;;;;;;21.34;54.87;99418.84;6949573;28;20234;-80
2022/10/17 07:32:22;;;;;;;8.27;4.50;;;;;;;22.51;51.87;99442.34;6951485;28;20203;-79
2022/10/17 07:35:43;;;;;;;4.83;2.60;;;;;;;22.32;50.99;99414.47;6952116;28;20262;-79
2022/10/17 07:39:05;;;;;;;3.10;2.53;;;;;;;23.00;50.66;99440.91;6950559;28;20266;-78
2022/10/17 07:42:27;;;;;;;4.37;2.93;;;;;;;23.71;49.12;99454.59;6957555;28;20299;-79
2022/10/17 07:45:50;;;;;;;3.60;2.93;;;;;;;23.77;48.78;99434.22;6952885;28;20266;-80
2022/10/17 07:49:12;;;;;;;3.67;2.50;;;;;;;23.43;50.45;99451.53;6953429;28;20271;-81
2022/10/17 07:52:33;;;;;;;5.73;2.57;;;;;;;24.24;48.14;99442.22;6958570;28;20207;-80
2022/10/17 07:55:55;;;;;;;3.67;2.60;;;;;;;24.70;46.82;99449.31;6963392;28;20205;-80
2022/10/17 07:59:17;;;;;;;5.43;3.27;;;;;;;24.66;47.63;99445.47;6961340;28;20252;-80
2022/10/17 08:02:40;;;;;;;6.23;2.30;;;;;;;24.51;47.04;99449.06;6954200;28;20297;-80
2022/10/17 08:06:02;;;;;;;6.20;2.87;;;;;;;24.95;46.52;99452.78;6951921;28;20331;-80
2022/10/17 08:09:23;;;;;;;3.40;2.30;;;;;;;25.45;45.48;99460.03;6950826;28;20313;-79
2022/10/17 08:12:45;;;;;;;5.13;2.40;;;;;;;25.98;44.17;99443.38;6951997;28;20267;-80
2022/10/17 08:16:08;;;;;;;3.50;2.37;;;;;;;25.98;44.91;99456.34;6953354;28;20201;-80
2022/10/17 08:19:31;;;;;;;9.50;2.70;;;;;;;26.33;43.25;99458.81;6948579;28;20757;-80
2022/10/17 08:22:53;;;;;;;6.27;2.70;;;;;;;26.18;42.87;99454.25;6950752;28;20241;-80
2022/10/17 08:26:16;;;;;;;3.03;2.10;;;;;;;26.29;42.70;99461.31;6953864;28;20224;-80
2022/10/17 08:29:37;;;;;;;5.00;2.30;;;;;;;27.04;41.39;99465.22;6948317;28;20361;-80
2022/10/17 08:32:59;;;;;;;10.03;3.40;;;;;;;27.38;41.15;99465.94;6950192;28;20726;-80
2022/10/17 08:36:22;;;;;;;8.33;4.07;;;;;;;27.81;39.70;99462.81;6951399;28;20345;-80
2022/10/17 08:39:44;;;;;;;7.00;2.50;;;;;;;28.19;39.08;99477.44;6950633;28;20243;-80
2022/10/17 08:43:16;;;;;;;6.73;2.50;;;;;;;28.79;37.14;99473.59;6950394;28;20215;-80
2022/10/17 08:46:40;;;;;;;5.20;2.43;;;;;;;27.96;38.31;99479.19;6924109;28;20196;-80
2022/10/17 08:50:03;;;;;;;4.83;2.20;;;;;;;29.09;37.45;99496.06;6922881;28;20293;-80
2022/10/17 08:53:30;;;;;;;7.07;2.57;;;;;;;29.10;37.79;99497.69;6949024;28;20223;-79
2022/10/17 08:56:54;;;;;;;5.70;2.40;;;;;;;28.47;37.62;99502.22;6950854;28;20400;-80
2022/10/17 09:00:18;;;;;;;5.93;2.00;;;;;;;28.92;37.37;99492.19;6949759;28;20301;-80
2022/10/17 09:03:53;;;;;;;8.10;2.23;;;;;;;28.82;37.69;99468.25;6949596;28;20214;-80
2022/10/17 09:07:21;;;;;;;6.30;2.27;;;;;;;28.20;38.47;99479.09;6949520;28;20207;-80
2022/10/17 09:10:56;;;;;;;5.50;2.10;;;;;;;28.14;38.29;99478.34;6949517;28;20310;-80
2022/10/17 09:14:32;;;;;;;3.73;2.33;;;;;;;27.67;37.91;99489.59;6950601;28;20199;-80
2022/10/17 09:17:57;;;;;;;3.40;1.80;;;;;;;26.76;39.62;99477.19;6948865;28;20226;-81
2022/10/17 09:21:21;;;;;;;3.43;2.17;;;;;;;26.62;39.22;99493.69;6922273;28;20358;-80
2022/10/17 09:24:46;;;;;;;3.97;1.80;;;;;;;26.20;41.51;99496.25;6932543;28;20289;-80
2022/10/17 09:28:14;;;;;;;4.27;1.80;;;;;;;26.33;40.93;99489.22;6947773;28;20208;-80
2022/10/17 09:31:42;;;;;;;2.40;2.20;;;;;;;26.71;40.33;99486.38;6947278;28;20357;-80
2022/10/17 09:35:04;;;;;;;5.83;2.03;;;;;;;27.16;39.40;99485.03;6927002;28;20291;-80
2022/10/17 09:38:29;;;;;;;5.60;1.87;;;;;;;26.92;39.53;99462.06;6944042;28;20647;-80
2022/10/17 09:41:54;;;;;;;6.27;2.00;;;;;;;27.73;37.84;99474.53;6944193;28;20250;-80
2022/10/17 09:45:23;;;;;;;4.17;1.67;;;;;;;27.72;38.58;99478.44;6949030;28;20245;-80
2022/10/17 09:48:46;;;;;;;3.33;2.00;;;;;;;28.59;36.92;99471.19;6947782;28;20199;-80
2022/10/17 09:52:12;;;;;;;2.77;1.60;;;;;;;28.37;36.57;99474.63;6927070;28;20294;-80
2022/10/17 09:55:38;;;;;;;2.70;2.03;;;;;;;27.51;37.53;99427.22;6948903;28;20242;-80
2022/10/17 09:59:00;;;;;;;2.40;1.83;;;;;;;28.34;36.90;99475.22;6947080;28;20234;-79
2022/10/17 10:02:25;;;;;;;3.10;1.80;;;;;;;28.55;36.67;99459.06;6948211;28;20222;-79
2022/10/17 10:06:02;;;;;;;5.03;1.80;;;;;;;26.85;38.37;99462.41;6948816;28;20245;-79
2022/10/17 10:09:25;;;;;;;4.67;2.10;;;;;;;27.35;38.58;99461.81;6948104;28;20317;-81
2022/10/17 10:13:02;;;;;;;2.77;1.90;;;;;;;27.61;39.32;99471.38;6944195;28;20350;-80
2022/10/17 10:16:31;;;;;;;5.27;2.00;;;;;;;28.29;37.72;99449.50;6948885;28;20289;-79
2022/10/17 10:19:54;;;;;;;4.17;1.80;;;;;;;28.84;36.71;99465.16;6947262;28;20393;-80
2022/10/17 10:23:17;;;;;;;3.00;1.60;;;;;;;28.89;35.95;99468.66;6948521;28;20286;-80
2022/10/17 10:26:40;;;;;;;3.80;1.90;;;;;;;28.83;35.21;99450.44;6948195;28;20223;-79
2022/10/17 10:30:02;;;;;;;1.63;1.53;;;;;;;29.01;35.23;99462.63;6946705;28;20273;-81
2022/10/17 10:33:27;;;;;;;2.03;1.70;;;;;;;28.99;35.85;99471.25;6921716;28;20234;-80
2022/10/17 10:37:02;;;;;;;1.90;1.80;;;;;;;29.23;35.77;99459.91;6920214;28;20251;-80
2022/10/17 10:40:25;;;;;;;4.07;2.30;;;;;;;29.53;35.42;99473.16;6938656;28;20227;-80
2022/10/17 10:43:49;;;;;;;3.57;1.80;;;;;;;29.76;35.49;99477.63;6950248;28;20216;-81
2022/10/17 10:47:17;;;;;;;3.50;2.00;;;;;;;29.41;34.53;99429.22;6948880;28;20786;-81
2022/10/17 10:50:42;;;;;;;4.87;1.63;;;;;;;29.57;34.63;99477.81;6947095;28;20313;-81
2022/10/17 10:54:10;;;;;;;2.97;1.70;;;;;;;29.28;35.62;99488.44;6951403;28;20220;-81
2022/10/17 10:57:33;;;;;;;6.07;1.87;;;;;;;29.55;35.21;99479.25;6952074;28;20685;-82
2022/10/17 11:00:56;;;;;;;3.57;1.83;;;;;;;29.91;33.89;99488.41;6952565;28;20245;-81
2022/10/17 11:04:23;;;;;;;3.33;1.70;;;;;;;29.89;34.88;99468.44;6964305;28;20263;-81
2022/10/17 11:07:48;;;;;;;1.93;1.70;;;;;;;28.82;35.54;99484.06;6929111;28;20249;-80
2022/10/17 11:11:17;;;;;;;1.97;1.80;;;;;;;27.90;36.73;99485.13;6921024;28;20275;-80
2022/10/17 11:14:43;;;;;;;2.20;1.90;;;;;;;28.84;35.58;99482.63;6921877;28;20332;-80
2022/10/17 11:18:07;;;;;;;2.73;2.03;;;;;;;29.87;33.93;99477.09;6921582;28;20227;-81
2022/10/17 11:21:37;;;;;;;2.23;1.90;;;;;;;30.44;32.86;99453.16;6922123;28;20269;-80
2022/10/17 11:25:00;;;;;;;5.20;2.10;;;;;;;29.60;32.77;99454.94;6943067;28;20196;-80
2022/10/17 11:28:24;;;;;;;5.23;2.40;;;;;;;29.76;33.46;99461.78;6950966;28;20214;-80
2022/10/17 11:31:50;;;;;;;3.30;2.50;;;;;;;29.75;33.23;99462.09;6944353;28;20982;-80
2022/10/17 11:35:17;;;;;;;4.03;1.80;;;;;;;30.38;33.00;99462.78;6949112;28;20489;-81
2022/10/17 11:38:45;;;;;;;2.00;1.60;;;;;;;30.66;31.12;99442.00;6949235;28;20677;-81
2022/10/17 11:42:10;;;;;;;1.93;1.73;;;;;;;30.80;31.35;99439.91;6951954;28;20210;-81
2022/10/17 11:45:38;;;;;;;2.60;1.70;;;;;;;31.16;31.37;99432.16;6951973;28;20213;-79
2022/10/17 11:49:06;;;;;;;3.33;1.40;;;;;;;31.30;30.85;99452.41;6944588;28;20277;-79
2022/10/17 11:52:33;;;;;;;3.70;1.70;;;;;;;31.19;31.30;99437.13;6948601;28;20241;-79
2022/10/17 11:55:58;;;;;;;3.30;1.70;;;;;;;31.67;30.59;99447.03;6957308;28;20302;-83
2022/10/17 11:59:48;;;;;;;3.60;1.67;;;;;;;31.09;31.66;99431.81;6957240;28;20237;-80
2022/10/17 12:03:33;;;;;;;6.10;2.10;;;;;;;31.11;30.92;99446.25;6956166;28;20212;-80
2022/10/17 12:07:05;;;;;;;5.50;2.27;;;;;;;31.66;30.42;99445.38;6951314;28;20241;-81
2022/10/17 12:10:35;;;;;;;5.53;1.90;;;;;;;31.08;30.30;99427.41;6954605;28;20231;-81
2022/10/17 12:17:55;;;;;;;2.53;2.00;;;;;;;31.76;29.19;99424.75;6918775;28;20678;-80
2022/10/17 12:21:18;;;;;;;6.07;1.90;;;;;;;31.03;30.00;99431.16;6952112;28;20225;-80
2022/10/17 12:24:41;;;;;;;3.73;2.70;;;;;;;31.20;30.29;99413.69;6951489;28;20282;-80
2022/10/17 12:28:15;;;;;;;3.43;1.93;;;;;;;31.65;30.09;99427.03;6950725;28;20202;-80
2022/10/17 12:31:36;;;;;;;5.00;2.00;;;;;;;31.00;30.31;99420.66;6949638;28;20348;-80
2022/10/17 12:34:58;;;;;;;8.57;2.10;;;;;;;30.34;30.81;99425.56;6951109;28;20194;-80
2022/10/17 12:38:28;;;;;;;4.60;2.00;;;;;;;31.07;30.44;99414.63;6950097;28;20281;-80
2022/10/17 12:41:53;;;;;;;3.70;2.00;;;;;;;30.86;30.09;99405.22;6948565;28;20230;-81
2022/10/17 12:45:47;;;;;;;3.80;1.97;;;;;;;30.99;30.83;99423.75;6922882;28;20217;-79
2022/10/17 12:49:41;;;;;;;4.00;2.13;;;;;;;31.81;29.60;99424.59;6926800;28;20698;-80
2022/10/17 12:53:06;;;;;;;3.67;2.00;;;;;;;32.02;29.19;99423.56;6930081;28;20687;-79
2022/10/17 12:56:36;;;;;;;3.43;1.90;;;;;;;30.95;29.31;99420.81;6948829;28;20274;-79
2022/10/17 12:59:58;;;;;;;5.87;2.10;;;;;;;30.78;29.29;99425.50;6963237;28;20785;-79
2022/10/17 13:03:22;;;;;;;4.67;1.70;;;;;;;30.57;28.62;99428.00;6977654;28;20667;-79
2022/10/17 13:06:46;;;;;;;4.00;1.70;;;;;;;30.58;29.34;99428.81;6962017;28;20336;-79
2022/10/17 13:10:21;;;;;;;4.63;2.17;;;;;;;30.75;29.33;99429.75;6950472;28;20230;-79
2022/10/17 13:13:46;;;;;;;4.90;1.77;;;;;;;30.74;29.25;99424.50;6954755;28;20269;-80
2022/10/17 13:17:22;;;;;;;5.33;2.23;;;;;;;30.85;29.60;99426.66;6952730;28;20221;-79
2022/10/17 13:20:43;;;;;;;5.20;1.90;;;;;;;31.02;28.76;99407.22;6949139;28;20228;-79
2022/10/17 13:24:20;;;;;;;2.10;1.70;;;;;;;31.40;28.69;99438.16;6949831;28;20209;-79
2022/10/17 13:27:41;;;;;;;5.07;2.40;;;;;;;31.47;29.24;99433.72;6948957;28;20686;-79
2022/10/17 13:31:04;;;;;;;4.23;2.20;;;;;;;31.55;29.51;99444.06;6947964;28;20315;-80
2022/10/17 13:34:26;;;;;;;5.87;2.20;;;;;;;31.40;29.55;99422.25;6946199;28;20196;-80
2022/10/17 13:37:49;;;;;;;6.10;3.03;;;;;;;31.09;30.00;99427.09;6947439;28;20209;-80
2022/10/17 13:41:12;;;;;;;7.23;3.10;;;;;;;30.69;30.67;99463.63;6948963;28;20652;-79
2022/10/17 13:44:35;;;;;;;4.90;3.33;;;;;;;30.89;32.53;99452.72;6949575;28;20204;-80
2022/10/17 13:47:58;;;;;;;13.37;6.10;;;;;;;30.26;34.36;99466.13;6948078;28;20565;-80
2022/10/17 13:51:20;;;;;;;9.53;3.60;;;;;;;29.87;34.98;99443.72;6948999;28;20649;-79
2022/10/17 13:54:42;;;;;;;8.73;3.10;;;;;;;30.08;34.72;99463.53;6925641;28;20225;-81
2022/10/17 13:58:15;;;;;;;8.80;3.63;;;;;;;29.92;35.10;99482.53;6920599;28;20252;-79
2022/10/17 14:01:37;;;;;;;4.93;2.70;;;;;;;30.11;33.93;99469.31;6948421;28;20593;-79
2022/10/17 14:05:11;;;;;;;3.87;2.60;;;;;;;30.42;33.54;99475.72;6948557;28;20302;-79
2022/10/17 14:08:34;;;;;;;3.10;2.80;;;;;;;30.52;33.61;99478.25;6947976;28;20274;-79
2022/10/17 14:12:03;;;;;;;5.80;2.70;;;;;;;30.32;34.37;99475.19;6940375;28;20228;-79
2022/10/17 14:15:27;;;;;;;7.60;2.67;;;;;;;30.35;34.17;99480.91;6946454;28;20301;-79
2022/10/17 14:18:49;;;;;;;4.70;2.50;;;;;;;30.09;34.85;99488.28;6947266;28;20312;-80
2022/10/17 14:22:17;;;;;;;4.83;2.30;;;;;;;29.39;35.94;99489.84;6949473;28;20286;-79
2022/10/17 14:25:40;;;;;;;4.47;3.00;;;;;;;29.71;36.55;99498.03;6948283;28;20251;-79
2022/10/17 14:29:06;;;;;;;4.40;2.90;;;;;;;29.54;35.48;99495.09;6946051;28;20268;-79
2022/10/17 14:32:29;;;;;;;8.83;3.53;;;;;;;29.15;36.51;99503.16;6945920;28;20661;-79
2022/10/17 14:35:51;;;;;;;14.07;6.90;;;;;;;29.56;35.75;99492.00;6948310;28;20595;-80
2022/10/17 14:39:19;;;;;;;4.70;2.33;;;;;;;29.15;36.00;99499.53;6947364;28;20235;-79
2022/10/17 14:42:41;;;;;;;4.43;2.30;;;;;;;29.55;35.25;99495.94;6948646;28;20218;-79
2022/10/17 14:46:03;;;;;;;3.60;2.10;;;;;;;29.25;35.62;99499.34;6948095;28;20349;-80
2022/10/17 14:49:28;;;;;;;4.87;2.00;;;;;;;29.37;35.02;99472.66;6937214;28;20311;-80
2022/10/17 14:53:00;;;;;;;6.20;2.40;;;;;;;29.15;35.33;99475.38;6920724;28;20302;-78
2022/10/17 14:56:25;;;;;;;3.37;2.40;;;;;;;29.23;35.38;99501.59;6920568;28;20687;-80
2022/10/17 14:59:46;;;;;;;3.93;2.53;;;;;;;29.28;35.48;99482.03;6919473;28;20232;-80
2022/10/17 15:03:08;;;;;;;8.23;2.70;;;;;;;29.36;35.92;99506.34;6919966;28;20303;-79
2022/10/17 15:06:33;;;;;;;8.03;2.53;;;;;;;29.42;35.53;99505.91;6920052;28;20250;-80
2022/10/17 15:09:54;;;;;;;2.30;2.10;;;;;;;29.68;34.88;99503.41;6919457;28;20291;-79
2022/10/17 15:13:17;;;;;;;3.33;2.40;;;;;;;29.63;35.30;99498.78;6920242;28;20696;-79
2022/10/17 15:16:39;;;;;;;5.47;2.40;;;;;;;29.21;36.26;99510.25;6925547;28;20234;-79
2022/10/17 15:20:00;;;;;;;4.17;2.47;;;;;;;28.49;36.24;99513.00;6946898;28;20235;-79
2022/10/17 15:23:22;;;;;;;3.80;2.07;;;;;;;29.16;35.72;99520.63;6947336;28;20242;-80
2022/10/17 15:26:43;;;;;;;3.40;2.20;;;;;;;28.85;36.62;99527.88;6949240;28;20352;-79
2022/10/17 15:30:18;;;;;;;3.93;2.10;;;;;;;29.11;36.27;99518.78;6950816;28;20944;-79
2022/10/17 15:33:39;;;;;;;3.37;3.07;;;;;;;28.84;37.53;99512.34;6950969;28;20668;-78
2022/10/17 15:37:01;;;;;;;5.73;2.80;;;;;;;28.32;38.26;99512.72;6953043;28;20361;-79
2022/10/17 15:40:24;;;;;;;2.40;2.00;;;;;;;28.38;38.26;99500.44;6953172;28;20235;-80
2022/10/17 15:43:47;;;;;;;4.63;2.07;;;;;;;28.72;37.77;99518.41;6952726;28;20243;-80
2022/10/17 15:47:19;;;;;;;7.20;2.60;;;;;;;28.77;39.16;99515.53;6952526;28;20199;-80
2022/10/17 15:50:41;;;;;;;5.27;2.77;;;;;;;28.01;42.24;99517.94;6952454;28;20712;-79
2022/10/17 15:54:03;;;;;;;8.03;2.87;;;;;;;26.66;44.65;99480.09;6951139;28;20253;-78
2022/10/17 15:57:27;;;;;;;9.40;3.80;;;;;;;25.86;47.28;99489.88;6950697;28;20667;-79
2022/10/17 16:00:48;;;;;;;5.97;2.90;;;;;;;25.75;47.62;99518.69;6950829;28;20331;-79
2022/10/17 16:04:14;;;;;;;7.43;3.10;;;;;;;25.96;47.18;99527.69;6951899;28;20296;-79